sensor_id;sensor_type;location;lat;lon;timestamp;pressure;altitude;pressure_sealevel;temperature;humidity
1401;BME280;46518;48.842;8.926;2022-09-30T00:01:52;96233.44;;;10.01;89.27
1401;BME280;46518;48.842;8.926;2022-09-30T00:04:22;96227.94;;;9.92;90.08
1401;BME280;46518;48.842;8.926;2022-09-30T00:06:53;96223.97;;;9.89;90.79
1401;BME280;46518;48.842;8.926;2022-09-30T00:09:21;96233.97;;;10.08;90.92
1401;BME280;46518;48.842;8.926;2022-09-30T00:11:50;96222.41;;;10.24;90.28
1401;BME280;46518;48.842;8.926;2022-09-30T00:14:20;96232.41;;;10.38;89.95
1401;BME280;46518;48.842;8.926;2022-09-30T00:16:49;96233.47;;;10.36;90.15
1401;BME280;46518;48.842;8.926;2022-09-30T00:19:17;96225.56;;;10.42;89.91
1401;BME280;46518;48.842;8.926;2022-09-30T00:21:46;96233.19;;;10.48;89.30
1401;BME280;46518;48.842;8.926;2022-09-30T00:24:16;96233.69;;;10.45;88.44
1401;BME280;46518;48.842;8.926;2022-09-30T00:26:44;96223.72;;;10.37;89.07
1401;BME280;46518;48.842;8.926;2022-09-30T00:29:12;96242.66;;;10.34;88.62
1401;BME280;46518;48.842;8.926;2022-09-30T00:31:41;96235.81;;;10.28;88.55
1401;BME280;46518;48.842;8.926;2022-09-30T00:34:09;96238.19;;;10.19;88.67
1401;BME280;46518;48.842;8.926;2022-09-30T00:36:41;96244.47;;;10.13;88.83
1401;BME280;46518;48.842;8.926;2022-09-30T00:39:13;96231.34;;;10.13;89.17
1401;BME280;46518;48.842;8.926;2022-09-30T00:41:43;96231.84;;;10.20;89.64
1401;BME280;46518;48.842;8.926;2022-09-30T00:44:46;96228.44;;;10.20;89.72
1401;BME280;46518;48.842;8.926;2022-09-30T00:47:27;96237.66;;;10.22;90.02
1401;BME280;46518;48.842;8.926;2022-09-30T00:49:58;96240.00;;;10.03;89.29
1401;BME280;46518;48.842;8.926;2022-09-30T00:52:29;96238.44;;;9.82;89.77
1401;BME280;46518;48.842;8.926;2022-09-30T00:54:58;96232.41;;;9.81;90.01
1401;BME280;46518;48.842;8.926;2022-09-30T00:57:29;96234.50;;;9.84;89.85
1401;BME280;46518;48.842;8.926;2022-09-30T00:59:58;96236.84;;;9.81;90.03
1401;BME280;46518;48.842;8.926;2022-09-30T01:02:27;96246.84;;;9.84;90.37
1401;BME280;46518;48.842;8.926;2022-09-30T01:04:56;96246.56;;;10.01;90.58
1401;BME280;46518;48.842;8.926;2022-09-30T01:07:24;96248.69;;;10.19;89.77
1401;BME280;46518;48.842;8.926;2022-09-30T01:09:54;96243.16;;;10.26;89.76
1401;BME280;46518;48.842;8.926;2022-09-30T01:12:25;96253.97;;;10.29;89.01
1401;BME280;46518;48.842;8.926;2022-09-30T01:14:55;96251.84;;;10.26;89.42
1401;BME280;46518;48.842;8.926;2022-09-30T01:17:34;96252.88;;;10.25;89.51
1401;BME280;46518;48.842;8.926;2022-09-30T01:20:34;96251.34;;;10.29;89.69
1401;BME280;46518;48.842;8.926;2022-09-30T01:23:34;96238.19;;;10.24;88.94
1401;BME280;46518;48.842;8.926;2022-09-30T01:26:33;96257.13;;;10.26;89.04
1401;BME280;46518;48.842;8.926;2022-09-30T01:32:27;96257.91;;;10.17;89.21
1401;BME280;46518;48.842;8.926;2022-09-30T01:35:08;96250.56;;;10.08;89.58
1401;BME280;46518;48.842;8.926;2022-09-30T01:37:46;96250.00;;;10.06;89.92
1401;BME280;46518;48.842;8.926;2022-09-30T01:40:21;96246.31;;;9.92;90.53
1401;BME280;46518;48.842;8.926;2022-09-30T01:42:55;96241.59;;;9.94;90.81
1401;BME280;46518;48.842;8.926;2022-09-30T01:45:32;96251.03;;;10.26;90.44
1401;BME280;46518;48.842;8.926;2022-09-30T01:48:07;96252.91;;;10.30;90.02
1401;BME280;46518;48.842;8.926;2022-09-30T01:50:45;96261.06;;;10.24;89.91
1401;BME280;46518;48.842;8.926;2022-09-30T01:53:22;96256.84;;;10.23;90.16
1401;BME280;46518;48.842;8.926;2022-09-30T01:55:56;96257.38;;;10.25;90.90
1401;BME280;46518;48.842;8.926;2022-09-30T01:58:37;96266.03;;;10.20;90.87
1401;BME280;46518;48.842;8.926;2022-09-30T02:01:15;96267.38;;;10.28;90.80
1401;BME280;46518;48.842;8.926;2022-09-30T02:03:48;96267.66;;;10.31;90.58
1401;BME280;46518;48.842;8.926;2022-09-30T02:06:22;96277.09;;;10.27;90.73
1401;BME280;46518;48.842;8.926;2022-09-30T02:08:55;96280.78;;;10.16;90.91
1401;BME280;46518;48.842;8.926;2022-09-30T02:11:27;96283.66;;;10.14;90.64
1401;BME280;46518;48.842;8.926;2022-09-30T02:14:00;96284.97;;;10.27;91.01
1401;BME280;46518;48.842;8.926;2022-09-30T02:16:38;96284.75;;;10.39;90.14
1401;BME280;46518;48.842;8.926;2022-09-30T02:19:13;96285.53;;;10.29;90.39
1401;BME280;46518;48.842;8.926;2022-09-30T02:21:49;96290.53;;;10.31;90.64
1401;BME280;46518;48.842;8.926;2022-09-30T02:24:18;96296.31;;;10.33;90.18
1401;BME280;46518;48.842;8.926;2022-09-30T02:26:53;96294.75;;;10.32;90.24
1401;BME280;46518;48.842;8.926;2022-09-30T02:29:27;96301.28;;;10.24;89.93
1401;BME280;46518;48.842;8.926;2022-09-30T02:32:00;96287.59;;;10.27;90.34
1401;BME280;46518;48.842;8.926;2022-09-30T02:34:34;96293.19;;;10.31;90.01
1401;BME280;46518;48.842;8.926;2022-09-30T02:37:06;96294.75;;;10.32;89.46
1401;BME280;46518;48.842;8.926;2022-09-30T02:39:40;96303.41;;;10.38;89.71
1401;BME280;46518;48.842;8.926;2022-09-30T02:42:13;96303.94;;;10.34;89.60
1401;BME280;46518;48.842;8.926;2022-09-30T02:44:42;96279.72;;;10.22;89.35
1401;BME280;46518;48.842;8.926;2022-09-30T02:47:13;96309.19;;;10.34;89.03
1401;BME280;46518;48.842;8.926;2022-09-30T02:49:48;96306.31;;;10.31;88.92
1401;BME280;46518;48.842;8.926;2022-09-30T02:52:24;96307.06;;;10.26;89.16
1401;BME280;46518;48.842;8.926;2022-09-30T02:55:07;96302.59;;;10.22;88.93
1401;BME280;46518;48.842;8.926;2022-09-30T02:57:43;96309.19;;;10.24;88.80
1401;BME280;46518;48.842;8.926;2022-09-30T03:00:15;96307.06;;;10.21;88.97
1401;BME280;46518;48.842;8.926;2022-09-30T03:02:44;96317.84;;;10.20;88.48
1401;BME280;46518;48.842;8.926;2022-09-30T03:05:15;96308.09;;;10.10;87.90
1401;BME280;46518;48.842;8.926;2022-09-30T03:07:43;96315.72;;;10.01;88.80
1401;BME280;46518;48.842;8.926;2022-09-30T03:10:13;96334.63;;;10.03;89.08
1401;BME280;46518;48.842;8.926;2022-09-30T03:12:55;96327.28;;;10.05;89.27
1401;BME280;46518;48.842;8.926;2022-09-30T03:15:40;96328.06;;;10.06;89.27
1401;BME280;46518;48.842;8.926;2022-09-30T03:21:24;96329.63;;;9.91;88.82
1401;BME280;46518;48.842;8.926;2022-09-30T03:24:29;96329.63;;;9.91;88.77
1401;BME280;46518;48.842;8.926;2022-09-30T03:27:11;96331.22;;;9.98;88.85
1401;BME280;46518;48.842;8.926;2022-09-30T03:30:15;96338.56;;;9.96;88.61
1401;BME280;46518;48.842;8.926;2022-09-30T03:33:00;96346.72;;;9.89;88.69
1401;BME280;46518;48.842;8.926;2022-09-30T03:35:40;96340.41;;;9.85;88.34
1401;BME280;46518;48.842;8.926;2022-09-30T03:38:14;96334.88;;;9.76;88.62
1401;BME280;46518;48.842;8.926;2022-09-30T03:40:56;96328.81;;;9.81;89.11
1401;BME280;46518;48.842;8.926;2022-09-30T03:43:29;96331.19;;;9.82;88.89
1401;BME280;46518;48.842;8.926;2022-09-30T03:46:04;96325.94;;;9.87;89.53
1401;BME280;46518;48.842;8.926;2022-09-30T03:48:34;96331.19;;;9.87;89.36
1401;BME280;46518;48.842;8.926;2022-09-30T03:51:04;96333.06;;;9.92;89.61
1401;BME280;46518;48.842;8.926;2022-09-30T03:53:38;96326.47;;;9.89;89.43
1401;BME280;46518;48.842;8.926;2022-09-30T03:56:07;96342.75;;;9.81;88.75
1401;BME280;46518;48.842;8.926;2022-09-30T03:58:36;96330.63;;;9.65;89.04
1401;BME280;46518;48.842;8.926;2022-09-30T04:01:07;96352.44;;;9.70;89.10
1401;BME280;46518;48.842;8.926;2022-09-30T04:03:38;96357.41;;;9.67;89.55
1401;BME280;46518;48.842;8.926;2022-09-30T04:06:08;96362.69;;;9.67;89.59
1401;BME280;46518;48.842;8.926;2022-09-30T04:08:40;96365.81;;;9.64;89.63
1401;BME280;46518;48.842;8.926;2022-09-30T04:11:08;96358.44;;;9.61;90.06
1401;BME280;46518;48.842;8.926;2022-09-30T04:13:36;96362.13;;;9.60;90.46
1401;BME280;46518;48.842;8.926;2022-09-30T04:16:05;96366.34;;;9.66;90.57
1401;BME280;46518;48.842;8.926;2022-09-30T04:18:35;96364.25;;;9.68;90.62
1401;BME280;46518;48.842;8.926;2022-09-30T04:21:05;96359.53;;;9.70;90.88
1401;BME280;46518;48.842;8.926;2022-09-30T04:23:34;96366.34;;;9.66;90.81
1401;BME280;46518;48.842;8.926;2022-09-30T04:26:06;96369.19;;;9.54;91.04
1401;BME280;46518;48.842;8.926;2022-09-30T04:28:35;96358.13;;;9.42;91.71
1401;BME280;46518;48.842;8.926;2022-09-30T04:31:05;96374.72;;;9.58;92.19
1401;BME280;46518;48.842;8.926;2022-09-30T04:33:33;96359.69;;;9.43;92.06
1401;BME280;46518;48.842;8.926;2022-09-30T04:36:02;96371.03;;;9.48;92.61
1401;BME280;46518;48.842;8.926;2022-09-30T04:38:30;96366.56;;;9.49;93.25
1401;BME280;46518;48.842;8.926;2022-09-30T04:41:01;96371.59;;;9.66;92.94
1401;BME280;46518;48.842;8.926;2022-09-30T04:43:33;96377.97;;;9.85;92.17
1401;BME280;46518;48.842;8.926;2022-09-30T04:46:01;96383.22;;;9.85;91.67
1401;BME280;46518;48.842;8.926;2022-09-30T04:48:30;96387.44;;;9.86;91.61
1401;BME280;46518;48.842;8.926;2022-09-30T04:50:58;96382.94;;;9.77;90.64
1401;BME280;46518;48.842;8.926;2022-09-30T04:53:27;96389.78;;;9.83;90.80
1401;BME280;46518;48.842;8.926;2022-09-30T04:55:59;96381.66;;;9.84;91.03
1401;BME280;46518;48.842;8.926;2022-09-30T04:58:28;96385.84;;;9.85;91.38
1401;BME280;46518;48.842;8.926;2022-09-30T05:01:05;96387.41;;;9.76;91.81
1401;BME280;46518;48.842;8.926;2022-09-30T05:03:35;96390.09;;;9.97;91.68
1401;BME280;46518;48.842;8.926;2022-09-30T05:06:04;96392.47;;;10.03;91.51
1401;BME280;46518;48.842;8.926;2022-09-30T05:08:33;96401.97;;;10.09;91.53
1401;BME280;46518;48.842;8.926;2022-09-30T05:11:04;96399.88;;;10.06;91.31
1401;BME280;46518;48.842;8.926;2022-09-30T05:13:36;96405.69;;;10.19;91.22
1401;BME280;46518;48.842;8.926;2022-09-30T05:16:08;96401.22;;;10.24;90.72
1401;BME280;46518;48.842;8.926;2022-09-30T05:18:37;96406.19;;;10.21;90.51
1401;BME280;46518;48.842;8.926;2022-09-30T05:21:07;96414.06;;;10.21;90.24
1401;BME280;46518;48.842;8.926;2022-09-30T05:23:35;96414.88;;;10.11;90.38
1401;BME280;46518;48.842;8.926;2022-09-30T05:26:04;96416.97;;;10.14;90.61
1401;BME280;46518;48.842;8.926;2022-09-30T05:28:38;96417.50;;;10.16;90.41
1401;BME280;46518;48.842;8.926;2022-09-30T05:31:08;96420.91;;;10.17;90.36
1401;BME280;46518;48.842;8.926;2022-09-30T05:33:38;96420.63;;;10.08;90.17
1401;BME280;46518;48.842;8.926;2022-09-30T05:36:11;96422.22;;;10.09;89.90
1401;BME280;46518;48.842;8.926;2022-09-30T05:38:40;96426.16;;;10.06;90.04
1401;BME280;46518;48.842;8.926;2022-09-30T05:41:11;96432.19;;;10.07;90.12
1401;BME280;46518;48.842;8.926;2022-09-30T05:43:41;96433.75;;;10.08;89.93
1401;BME280;46518;48.842;8.926;2022-09-30T05:46:13;96446.91;;;10.08;89.88
1401;BME280;46518;48.842;8.926;2022-09-30T05:48:41;96439.53;;;10.05;89.96
1401;BME280;46518;48.842;8.926;2022-09-30T05:51:10;96444.53;;;10.01;89.85
1401;BME280;46518;48.842;8.926;2022-09-30T05:53:38;96449.53;;;10.03;89.80
1401;BME280;46518;48.842;8.926;2022-09-30T05:56:08;96452.69;;;10.05;89.81
1401;BME280;46518;48.842;8.926;2022-09-30T05:58:37;96446.88;;;9.98;89.89
1401;BME280;46518;48.842;8.926;2022-09-30T06:01:08;96442.38;;;9.93;90.11
1401;BME280;46518;48.842;8.926;2022-09-30T06:03:42;96447.41;;;9.94;89.84
1401;BME280;46518;48.842;8.926;2022-09-30T06:06:11;96443.44;;;9.92;90.09
1401;BME280;46518;48.842;8.926;2022-09-30T06:08:39;96441.06;;;9.90;90.21
1401;BME280;46518;48.842;8.926;2022-09-30T06:11:10;96448.69;;;9.92;90.18
1401;BME280;46518;48.842;8.926;2022-09-30T06:13:39;96447.63;;;9.88;90.23
1401;BME280;46518;48.842;8.926;2022-09-30T06:16:10;96454.19;;;9.90;90.49
1401;BME280;46518;48.842;8.926;2022-09-30T06:18:39;96465.00;;;9.94;90.39
1401;BME280;46518;48.842;8.926;2022-09-30T06:21:10;96448.91;;;9.85;90.55
1401;BME280;46518;48.842;8.926;2022-09-30T06:23:39;96467.88;;;9.92;90.76
1401;BME280;46518;48.842;8.926;2022-09-30T06:26:09;96470.56;;;10.08;90.71
1401;BME280;46518;48.842;8.926;2022-09-30T06:28:39;96476.13;;;10.11;90.66
1401;BME280;46518;48.842;8.926;2022-09-30T06:31:08;96480.34;;;10.18;91.05
1401;BME280;46518;48.842;8.926;2022-09-30T06:33:37;96475.09;;;10.23;90.88
1401;BME280;46518;48.842;8.926;2022-09-30T06:36:05;96478.56;;;10.28;91.22
1401;BME280;46518;48.842;8.926;2022-09-30T06:38:35;96484.88;;;10.32;91.21
1401;BME280;46518;48.842;8.926;2022-09-30T06:41:05;96481.75;;;10.41;91.23
1401;BME280;46518;48.842;8.926;2022-09-30T06:43:34;96492.81;;;10.43;91.10
1401;BME280;46518;48.842;8.926;2022-09-30T06:46:21;96488.31;;;10.38;91.07
1401;BME280;46518;48.842;8.926;2022-09-30T06:48:57;96498.03;;;10.38;90.96
1401;BME280;46518;48.842;8.926;2022-09-30T06:51:46;96501.44;;;10.33;90.95
1401;BME280;46518;48.842;8.926;2022-09-30T06:54:18;96505.13;;;10.32;91.07
1401;BME280;46518;48.842;8.926;2022-09-30T06:56:48;96505.16;;;10.37;91.29
1401;BME280;46518;48.842;8.926;2022-09-30T06:59:18;96510.69;;;10.41;91.30
1401;BME280;46518;48.842;8.926;2022-09-30T07:01:46;96505.94;;;10.43;91.33
1401;BME280;46518;48.842;8.926;2022-09-30T07:04:15;96507.25;;;10.35;91.86
1401;BME280;46518;48.842;8.926;2022-09-30T07:06:44;96514.91;;;10.47;91.64
1401;BME280;46518;48.842;8.926;2022-09-30T07:09:13;96515.16;;;10.40;91.75
1401;BME280;46518;48.842;8.926;2022-09-30T07:11:42;96511.75;;;10.50;91.85
1401;BME280;46518;48.842;8.926;2022-09-30T07:14:11;96523.38;;;10.54;91.82
1401;BME280;46518;48.842;8.926;2022-09-30T07:16:40;96523.34;;;10.44;92.37
1401;BME280;46518;48.842;8.926;2022-09-30T07:19:11;96528.09;;;10.52;92.02
1401;BME280;46518;48.842;8.926;2022-09-30T07:21:40;96521.00;;;10.63;91.85
1401;BME280;46518;48.842;8.926;2022-09-30T07:24:08;96523.41;;;10.79;91.74
1401;BME280;46518;48.842;8.926;2022-09-30T07:26:37;96531.31;;;10.90;91.28
1401;BME280;46518;48.842;8.926;2022-09-30T07:29:13;96528.69;;;10.85;91.50
1401;BME280;46518;48.842;8.926;2022-09-30T07:31:41;96526.81;;;10.80;91.43
1401;BME280;46518;48.842;8.926;2022-09-30T07:34:09;96524.97;;;10.80;91.47
1401;BME280;46518;48.842;8.926;2022-09-30T07:36:40;96534.47;;;10.76;91.12
1401;BME280;46518;48.842;8.926;2022-09-30T07:39:09;96525.78;;;10.81;91.31
1401;BME280;46518;48.842;8.926;2022-09-30T07:41:40;96532.88;;;10.86;91.53
1401;BME280;46518;48.842;8.926;2022-09-30T07:44:13;96545.03;;;11.02;91.50
1401;BME280;46518;48.842;8.926;2022-09-30T07:46:43;96549.28;;;11.13;91.84
1401;BME280;46518;48.842;8.926;2022-09-30T07:49:13;96547.97;;;11.21;91.35
1401;BME280;46518;48.842;8.926;2022-09-30T07:51:46;96551.91;;;11.34;91.40
1401;BME280;46518;48.842;8.926;2022-09-30T07:54:17;96566.41;;;11.47;91.65
1401;BME280;46518;48.842;8.926;2022-09-30T07:56:46;96562.19;;;11.56;91.03
1401;BME280;46518;48.842;8.926;2022-09-30T07:59:54;96572.44;;;11.68;91.19
1401;BME280;46518;48.842;8.926;2022-09-30T08:02:22;96576.13;;;11.77;91.08
1401;BME280;46518;48.842;8.926;2022-09-30T08:04:51;96578.75;;;11.82;91.19
1401;BME280;46518;48.842;8.926;2022-09-30T08:07:19;96562.69;;;11.83;90.80
1401;BME280;46518;48.842;8.926;2022-09-30T08:09:47;96574.53;;;11.96;90.91
1401;BME280;46518;48.842;8.926;2022-09-30T08:12:20;96587.19;;;12.04;91.03
1401;BME280;46518;48.842;8.926;2022-09-30T08:14:48;96585.84;;;12.07;91.08
1401;BME280;46518;48.842;8.926;2022-09-30T08:17:18;96587.44;;;12.18;90.76
1401;BME280;46518;48.842;8.926;2022-09-30T08:19:46;96586.88;;;12.21;90.26
1401;BME280;46518;48.842;8.926;2022-09-30T08:22:15;96601.63;;;12.33;90.26
1401;BME280;46518;48.842;8.926;2022-09-30T08:24:52;96605.25;;;12.52;89.93
1401;BME280;46518;48.842;8.926;2022-09-30T08:27:20;96608.13;;;12.61;89.45
1401;BME280;46518;48.842;8.926;2022-09-30T08:29:48;96604.69;;;12.60;89.05
1401;BME280;46518;48.842;8.926;2022-09-30T08:32:23;96607.06;;;12.62;89.13
1401;BME280;46518;48.842;8.926;2022-09-30T08:34:51;96611.78;;;12.70;88.73
1401;BME280;46518;48.842;8.926;2022-09-30T08:37:19;96600.94;;;12.77;88.33
1401;BME280;46518;48.842;8.926;2022-09-30T08:40:16;96607.22;;;12.86;88.08
1401;BME280;46518;48.842;8.926;2022-09-30T08:42:57;96608.50;;;12.93;87.49
1401;BME280;46518;48.842;8.926;2022-09-30T08:45:36;96616.41;;;12.99;87.04
1401;BME280;46518;48.842;8.926;2022-09-30T08:48:26;96613.44;;;13.05;86.60
1401;BME280;46518;48.842;8.926;2022-09-30T08:51:03;96619.22;;;13.12;86.43
1401;BME280;46518;48.842;8.926;2022-09-30T08:53:37;96612.59;;;13.15;86.01
1401;BME280;46518;48.842;8.926;2022-09-30T08:56:07;96618.38;;;13.22;85.91
1401;BME280;46518;48.842;8.926;2022-09-30T08:58:42;96611.22;;;13.33;85.63
1401;BME280;46518;48.842;8.926;2022-09-30T09:01:16;96614.81;;;13.42;85.47
1401;BME280;46518;48.842;8.926;2022-09-30T09:03:53;96620.38;;;13.46;85.01
1401;BME280;46518;48.842;8.926;2022-09-30T09:06:26;96613.41;;;13.55;84.55
1401;BME280;46518;48.842;8.926;2022-09-30T09:12:06;96617.00;;;13.69;83.58
1401;BME280;46518;48.842;8.926;2022-09-30T09:14:50;96615.34;;;13.78;83.05
1401;BME280;46518;48.842;8.926;2022-09-30T09:17:30;96617.38;;;13.87;82.68
1401;BME280;46518;48.842;8.926;2022-09-30T09:20:12;96616.31;;;13.88;82.79
1401;BME280;46518;48.842;8.926;2022-09-30T09:22:41;96617.06;;;13.93;82.02
1401;BME280;46518;48.842;8.926;2022-09-30T09:25:12;96626.06;;;13.92;81.65
1401;BME280;46518;48.842;8.926;2022-09-30T09:27:47;96619.72;;;13.93;81.32
1401;BME280;46518;48.842;8.926;2022-09-30T09:30:19;96610.44;;;13.96;81.11
1401;BME280;46518;48.842;8.926;2022-09-30T09:32:51;96627.00;;;14.07;80.22
1401;BME280;46518;48.842;8.926;2022-09-30T09:35:41;96615.78;;;14.15;79.99
1401;BME280;46518;48.842;8.926;2022-09-30T09:38:15;96616.03;;;14.18;78.85
1401;BME280;46518;48.842;8.926;2022-09-30T09:41:09;96624.16;;;14.27;78.60
1401;BME280;46518;48.842;8.926;2022-09-30T09:43:49;96620.66;;;14.32;78.23
1401;BME280;46518;48.842;8.926;2022-09-30T09:46:23;96621.91;;;14.39;77.45
1401;BME280;46518;48.842;8.926;2022-09-30T09:49:25;96631.59;;;14.49;77.03
1401;BME280;46518;48.842;8.926;2022-09-30T09:52:11;96619.09;;;14.55;76.82
1401;BME280;46518;48.842;8.926;2022-09-30T09:54:47;96627.06;;;14.50;76.49
1401;BME280;46518;48.842;8.926;2022-09-30T09:57:20;96613.31;;;14.48;75.41
1401;BME280;46518;48.842;8.926;2022-09-30T09:59:56;96624.94;;;14.52;74.92
1401;BME280;46518;48.842;8.926;2022-09-30T10:02:26;96627.06;;;14.55;74.65
1401;BME280;46518;48.842;8.926;2022-09-30T10:04:57;96618.59;;;14.53;74.46
1401;BME280;46518;48.842;8.926;2022-09-30T10:07:32;96621.75;;;14.55;74.27
1401;BME280;46518;48.842;8.926;2022-09-30T10:10:17;96633.38;;;14.59;74.27
1401;BME280;46518;48.842;8.926;2022-09-30T10:12:50;96633.53;;;14.67;74.59
1401;BME280;46518;48.842;8.926;2022-09-30T10:15:20;96631.91;;;14.72;74.52
1401;BME280;46518;48.842;8.926;2022-09-30T10:17:52;96635.31;;;14.72;73.73
1401;BME280;46518;48.842;8.926;2022-09-30T10:20:30;96635.91;;;14.69;72.89
1401;BME280;46518;48.842;8.926;2022-09-30T10:23:07;96634.34;;;14.68;72.42
1401;BME280;46518;48.842;8.926;2022-09-30T10:25:38;96623.75;;;14.68;72.13
1401;BME280;46518;48.842;8.926;2022-09-30T10:28:19;96623.69;;;14.73;72.18
1401;BME280;46518;48.842;8.926;2022-09-30T10:30:55;96632.41;;;14.74;71.67
1401;BME280;46518;48.842;8.926;2022-09-30T10:33:28;96634.88;;;14.65;69.87
1401;BME280;46518;48.842;8.926;2022-09-30T10:36:07;96635.69;;;14.65;69.21
1401;BME280;46518;48.842;8.926;2022-09-30T10:38:46;96639.69;;;14.63;69.15
1401;BME280;46518;48.842;8.926;2022-09-30T10:41:21;96641.53;;;14.62;69.36
1401;BME280;46518;48.842;8.926;2022-09-30T10:43:53;96645.81;;;14.58;69.39
1401;BME280;46518;48.842;8.926;2022-09-30T10:46:24;96650.09;;;14.54;68.15
1401;BME280;46518;48.842;8.926;2022-09-30T10:48:55;96646.13;;;14.52;67.86
1401;BME280;46518;48.842;8.926;2022-09-30T10:51:27;96648.78;;;14.52;67.98
1401;BME280;46518;48.842;8.926;2022-09-30T10:53:58;96647.72;;;14.53;68.35
1401;BME280;46518;48.842;8.926;2022-09-30T10:56:36;96650.63;;;14.56;67.81
1401;BME280;46518;48.842;8.926;2022-09-30T10:59:11;96638.41;;;14.60;68.01
1401;BME280;46518;48.842;8.926;2022-09-30T11:01:46;96636.97;;;14.68;68.17
1401;BME280;46518;48.842;8.926;2022-09-30T11:04:25;96635.25;;;14.77;68.32
1401;BME280;46518;48.842;8.926;2022-09-30T11:06:59;96636.00;;;14.83;68.01
1401;BME280;46518;48.842;8.926;2022-09-30T11:09:33;96642.22;;;14.92;68.14
1401;BME280;46518;48.842;8.926;2022-09-30T11:12:10;96644.03;;;14.97;67.40
1401;BME280;46518;48.842;8.926;2022-09-30T11:14:45;96638.41;;;15.03;66.79
1401;BME280;46518;48.842;8.926;2022-09-30T11:17:26;96641.41;;;15.16;67.06
1401;BME280;46518;48.842;8.926;2022-09-30T11:20:03;96638.13;;;15.24;67.44
1401;BME280;46518;48.842;8.926;2022-09-30T11:22:40;96638.19;;;15.38;66.95
1401;BME280;46518;48.842;8.926;2022-09-30T11:25:14;96641.56;;;15.43;65.14
1401;BME280;46518;48.842;8.926;2022-09-30T11:27:54;96638.81;;;15.48;64.88
1401;BME280;46518;48.842;8.926;2022-09-30T11:30:31;96633.88;;;15.61;65.14
1401;BME280;46518;48.842;8.926;2022-09-30T11:33:11;96637.69;;;15.73;65.12
1401;BME280;46518;48.842;8.926;2022-09-30T11:35:53;96640.84;;;15.76;63.07
1401;BME280;46518;48.842;8.926;2022-09-30T11:38:39;96635.34;;;15.67;60.59
1401;BME280;46518;48.842;8.926;2022-09-30T11:41:18;96640.91;;;15.70;60.66
1401;BME280;46518;48.842;8.926;2022-09-30T11:44:00;96643.56;;;15.70;61.04
1401;BME280;46518;48.842;8.926;2022-09-30T11:46:58;96643.41;;;15.81;61.24
1401;BME280;46518;48.842;8.926;2022-09-30T11:50:05;96646.34;;;15.79;60.03
1401;BME280;46518;48.842;8.926;2022-09-30T11:52:40;96652.16;;;15.81;59.35
1401;BME280;46518;48.842;8.926;2022-09-30T11:55:35;96651.94;;;15.78;58.70
1401;BME280;46518;48.842;8.926;2022-09-30T11:58:10;96648.72;;;15.81;58.31
1401;BME280;46518;48.842;8.926;2022-09-30T12:01:15;96648.13;;;15.84;58.73
1401;BME280;46518;48.842;8.926;2022-09-30T12:03:53;96648.63;;;15.86;59.64
1401;BME280;46518;48.842;8.926;2022-09-30T12:06:29;96645.56;;;15.92;59.86
1401;BME280;46518;48.842;8.926;2022-09-30T12:09:05;96642.38;;;15.95;59.78
1401;BME280;46518;48.842;8.926;2022-09-30T12:11:40;96648.88;;;16.03;60.03
1401;BME280;46518;48.842;8.926;2022-09-30T12:14:17;96643.47;;;16.08;60.85
1401;BME280;46518;48.842;8.926;2022-09-30T12:16:46;96646.63;;;16.10;60.64
1401;BME280;46518;48.842;8.926;2022-09-30T12:19:21;96643.66;;;16.12;60.19
1401;BME280;46518;48.842;8.926;2022-09-30T12:22:04;96650.34;;;16.09;59.01
1401;BME280;46518;48.842;8.926;2022-09-30T12:24:36;96642.97;;;16.06;58.90
1401;BME280;46518;48.842;8.926;2022-09-30T12:27:13;96645.25;;;16.13;59.81
1401;BME280;46518;48.842;8.926;2022-09-30T12:29:50;96651.25;;;16.18;59.71
1401;BME280;46518;48.842;8.926;2022-09-30T12:33:05;96642.91;;;16.25;60.35
1401;BME280;46518;48.842;8.926;2022-09-30T12:36:04;96642.00;;;16.30;60.33
1401;BME280;46518;48.842;8.926;2022-09-30T12:38:52;96650.09;;;16.38;59.65
1401;BME280;46518;48.842;8.926;2022-09-30T12:41:35;96648.44;;;16.43;60.02
1401;BME280;46518;48.842;8.926;2022-09-30T12:47:18;96646.09;;;16.55;61.15
1401;BME280;46518;48.842;8.926;2022-09-30T12:49:54;96648.25;;;16.53;60.72
1401;BME280;46518;48.842;8.926;2022-09-30T12:52:24;96648.66;;;16.60;60.50
1401;BME280;46518;48.842;8.926;2022-09-30T12:54:55;96652.78;;;16.66;59.85
1401;BME280;46518;48.842;8.926;2022-09-30T12:57:29;96647.66;;;16.56;60.25
1401;BME280;46518;48.842;8.926;2022-09-30T13:00:03;96653.16;;;16.59;59.98
1401;BME280;46518;48.842;8.926;2022-09-30T13:02:36;96654.66;;;16.66;59.81
1401;BME280;46518;48.842;8.926;2022-09-30T13:08:22;96653.94;;;16.74;60.19
1401;BME280;46518;48.842;8.926;2022-09-30T13:10:56;96653.34;;;16.77;60.14
1401;BME280;46518;48.842;8.926;2022-09-30T13:13:26;96658.41;;;16.78;59.87
1401;BME280;46518;48.842;8.926;2022-09-30T13:15:57;96657.22;;;16.85;59.71
1401;BME280;46518;48.842;8.926;2022-09-30T13:18:59;96653.50;;;16.86;59.88
1401;BME280;46518;48.842;8.926;2022-09-30T13:21:28;96653.00;;;16.84;59.23
1401;BME280;46518;48.842;8.926;2022-09-30T13:23:58;96653.00;;;16.84;59.53
1401;BME280;46518;48.842;8.926;2022-09-30T13:26:35;96661.75;;;16.84;59.12
1401;BME280;46518;48.842;8.926;2022-09-30T13:32:09;96658.13;;;16.80;58.81
1401;BME280;46518;48.842;8.926;2022-09-30T13:34:53;96659.69;;;16.81;58.40
1401;BME280;46518;48.842;8.926;2022-09-30T13:37:34;96659.47;;;16.77;58.15
1401;BME280;46518;48.842;8.926;2022-09-30T13:40:04;96659.88;;;16.71;58.70
1401;BME280;46518;48.842;8.926;2022-09-30T13:42:52;96664.97;;;16.67;59.00
1401;BME280;46518;48.842;8.926;2022-09-30T13:45:29;96664.69;;;16.69;59.05
1401;BME280;46518;48.842;8.926;2022-09-30T13:48:27;96674.22;;;16.70;59.43
1401;BME280;46518;48.842;8.926;2022-09-30T13:50:59;96669.22;;;16.68;58.55
1401;BME280;46518;48.842;8.926;2022-09-30T13:53:34;96670.50;;;16.71;58.80
1401;BME280;46518;48.842;8.926;2022-09-30T13:56:06;96670.69;;;16.74;58.78
1401;BME280;46518;48.842;8.926;2022-09-30T14:01:51;96682.41;;;16.73;58.84
1401;BME280;46518;48.842;8.926;2022-09-30T14:04:39;96681.13;;;16.71;58.64
1401;BME280;46518;48.842;8.926;2022-09-30T14:07:17;96681.41;;;16.69;58.72
1401;BME280;46518;48.842;8.926;2022-09-30T14:10:21;96685.94;;;16.69;58.60
1401;BME280;46518;48.842;8.926;2022-09-30T14:13:07;96682.00;;;16.66;58.45
1401;BME280;46518;48.842;8.926;2022-09-30T14:15:57;96682.78;;;16.67;58.32